sensor_id;sensor_type;location;lat;lon;timestamp;P1;durP1;ratioP1;P2;durP2;ratioP2
54261;SDS011;40174;52.364;6.452;2022-09-30T00:00:10;7.85;;;2.47;;
54261;SDS011;40174;52.364;6.452;2022-09-30T00:02:37;5.72;;;2.42;;
54261;SDS011;40174;52.364;6.452;2022-09-30T00:05:03;7.78;;;2.85;;
54261;SDS011;40174;52.364;6.452;2022-09-30T00:07:30;6.25;;;2.70;;
54261;SDS011;40174;52.364;6.452;2022-09-30T00:09:57;7.20;;;2.58;;
54261;SDS011;40174;52.364;6.452;2022-09-30T00:12:24;4.97;;;2.28;;
54261;SDS011;40174;52.364;6.452;2022-09-30T00:14:52;7.55;;;2.40;;
54261;SDS011;40174;52.364;6.452;2022-09-30T00:17:19;8.57;;;3.50;;
54261;SDS011;40174;52.364;6.452;2022-09-30T00:19:46;6.55;;;3.17;;
54261;SDS011;40174;52.364;6.452;2022-09-30T00:22:12;8.30;;;3.80;;
54261;SDS011;40174;52.364;6.452;2022-09-30T00:24:39;10.32;;;3.97;;
54261;SDS011;40174;52.364;6.452;2022-09-30T00:27:05;9.10;;;3.22;;
54261;SDS011;40174;52.364;6.452;2022-09-30T00:29:32;9.00;;;3.92;;
54261;SDS011;40174;52.364;6.452;2022-09-30T00:32:00;7.68;;;3.78;;
54261;SDS011;40174;52.364;6.452;2022-09-30T00:34:27;8.95;;;3.78;;
54261;SDS011;40174;52.364;6.452;2022-09-30T00:36:53;8.48;;;4.28;;
54261;SDS011;40174;52.364;6.452;2022-09-30T00:39:21;9.85;;;4.13;;
54261;SDS011;40174;52.364;6.452;2022-09-30T00:41:50;10.10;;;4.10;;
54261;SDS011;40174;52.364;6.452;2022-09-30T00:47:17;9.50;;;3.33;;
54261;SDS011;40174;52.364;6.452;2022-09-30T00:49:54;8.38;;;3.97;;
54261;SDS011;40174;52.364;6.452;2022-09-30T00:52:24;8.70;;;3.70;;
54261;SDS011;40174;52.364;6.452;2022-09-30T00:54:51;7.32;;;3.70;;
54261;SDS011;40174;52.364;6.452;2022-09-30T00:57:18;9.18;;;3.88;;
54261;SDS011;40174;52.364;6.452;2022-09-30T00:59:46;8.38;;;3.70;;
54261;SDS011;40174;52.364;6.452;2022-09-30T01:02:15;8.27;;;3.90;;
54261;SDS011;40174;52.364;6.452;2022-09-30T01:04:41;7.70;;;3.55;;
54261;SDS011;40174;52.364;6.452;2022-09-30T01:07:10;6.97;;;3.30;;
54261;SDS011;40174;52.364;6.452;2022-09-30T01:09:38;7.60;;;3.40;;
54261;SDS011;40174;52.364;6.452;2022-09-30T01:12:07;8.18;;;4.13;;
54261;SDS011;40174;52.364;6.452;2022-09-30T01:14:37;8.35;;;3.83;;
54261;SDS011;40174;52.364;6.452;2022-09-30T01:17:07;7.00;;;3.28;;
54261;SDS011;40174;52.364;6.452;2022-09-30T01:19:45;7.22;;;3.50;;
54261;SDS011;40174;52.364;6.452;2022-09-30T01:22:36;8.35;;;3.47;;
54261;SDS011;40174;52.364;6.452;2022-09-30T01:28:26;8.88;;;3.83;;
54261;SDS011;40174;52.364;6.452;2022-09-30T01:31:34;9.35;;;3.60;;
54261;SDS011;40174;52.364;6.452;2022-09-30T01:34:11;8.63;;;3.00;;
54261;SDS011;40174;52.364;6.452;2022-09-30T01:36:45;8.50;;;3.42;;
54261;SDS011;40174;52.364;6.452;2022-09-30T01:39:26;9.82;;;3.20;;
54261;SDS011;40174;52.364;6.452;2022-09-30T01:42:04;10.50;;;3.47;;
54261;SDS011;40174;52.364;6.452;2022-09-30T01:44:36;8.45;;;3.53;;
54261;SDS011;40174;52.364;6.452;2022-09-30T01:47:16;8.23;;;3.88;;
54261;SDS011;40174;52.364;6.452;2022-09-30T01:49:49;11.15;;;4.00;;
54261;SDS011;40174;52.364;6.452;2022-09-30T01:52:21;11.65;;;4.80;;
54261;SDS011;40174;52.364;6.452;2022-09-30T01:54:53;14.02;;;4.97;;
54261;SDS011;40174;52.364;6.452;2022-09-30T01:57:26;10.63;;;4.38;;
54261;SDS011;40174;52.364;6.452;2022-09-30T01:59:57;11.20;;;5.22;;
54261;SDS011;40174;52.364;6.452;2022-09-30T02:02:37;12.18;;;5.85;;
54261;SDS011;40174;52.364;6.452;2022-09-30T02:05:10;11.53;;;5.50;;
54261;SDS011;40174;52.364;6.452;2022-09-30T02:07:44;12.63;;;5.93;;
54261;SDS011;40174;52.364;6.452;2022-09-30T02:10:14;11.27;;;5.90;;
54261;SDS011;40174;52.364;6.452;2022-09-30T02:12:46;13.68;;;5.95;;
54261;SDS011;40174;52.364;6.452;2022-09-30T02:15:17;9.48;;;4.53;;
54261;SDS011;40174;52.364;6.452;2022-09-30T02:17:49;8.10;;;4.57;;
54261;SDS011;40174;52.364;6.452;2022-09-30T02:20:20;13.10;;;5.00;;
54261;SDS011;40174;52.364;6.452;2022-09-30T02:22:53;10.77;;;4.00;;
54261;SDS011;40174;52.364;6.452;2022-09-30T02:25:26;12.48;;;4.72;;
54261;SDS011;40174;52.364;6.452;2022-09-30T02:27:56;9.48;;;4.20;;
54261;SDS011;40174;52.364;6.452;2022-09-30T02:30:27;8.00;;;4.50;;
54261;SDS011;40174;52.364;6.452;2022-09-30T02:32:57;11.75;;;4.38;;
54261;SDS011;40174;52.364;6.452;2022-09-30T02:35:28;8.02;;;3.85;;
54261;SDS011;40174;52.364;6.452;2022-09-30T02:38:01;9.57;;;4.28;;
54261;SDS011;40174;52.364;6.452;2022-09-30T02:40:32;8.45;;;3.85;;
54261;SDS011;40174;52.364;6.452;2022-09-30T02:43:03;9.30;;;4.07;;
54261;SDS011;40174;52.364;6.452;2022-09-30T02:45:31;8.82;;;4.07;;
54261;SDS011;40174;52.364;6.452;2022-09-30T02:48:10;8.10;;;3.92;;
54261;SDS011;40174;52.364;6.452;2022-09-30T02:50:49;9.43;;;4.35;;
54261;SDS011;40174;52.364;6.452;2022-09-30T02:53:21;8.43;;;3.97;;
54261;SDS011;40174;52.364;6.452;2022-09-30T02:55:59;9.13;;;4.05;;
54261;SDS011;40174;52.364;6.452;2022-09-30T02:58:33;9.52;;;3.50;;
54261;SDS011;40174;52.364;6.452;2022-09-30T03:01:02;8.77;;;3.95;;
54261;SDS011;40174;52.364;6.452;2022-09-30T03:03:31;7.47;;;3.40;;
54261;SDS011;40174;52.364;6.452;2022-09-30T03:06:00;10.30;;;4.07;;
54261;SDS011;40174;52.364;6.452;2022-09-30T03:08:27;9.60;;;4.03;;
54261;SDS011;40174;52.364;6.452;2022-09-30T03:10:53;9.18;;;3.83;;
54261;SDS011;40174;52.364;6.452;2022-09-30T03:13:25;7.28;;;3.75;;
54261;SDS011;40174;52.364;6.452;2022-09-30T03:16:15;7.68;;;3.78;;
54261;SDS011;40174;52.364;6.452;2022-09-30T03:18:52;9.30;;;3.63;;
54261;SDS011;40174;52.364;6.452;2022-09-30T03:21:33;8.30;;;3.78;;
54261;SDS011;40174;52.364;6.452;2022-09-30T03:24:16;8.98;;;3.78;;
54261;SDS011;40174;52.364;6.452;2022-09-30T03:26:59;8.02;;;3.75;;
54261;SDS011;40174;52.364;6.452;2022-09-30T03:29:36;7.63;;;3.83;;
54261;SDS011;40174;52.364;6.452;2022-09-30T03:32:13;11.50;;;3.83;;
54261;SDS011;40174;52.364;6.452;2022-09-30T03:35:01;8.85;;;4.25;;
54261;SDS011;40174;52.364;6.452;2022-09-30T03:37:37;8.85;;;4.18;;
54261;SDS011;40174;52.364;6.452;2022-09-30T03:40:13;6.90;;;3.28;;
54261;SDS011;40174;52.364;6.452;2022-09-30T03:42:46;8.88;;;3.97;;
54261;SDS011;40174;52.364;6.452;2022-09-30T03:45:19;8.75;;;4.15;;
54261;SDS011;40174;52.364;6.452;2022-09-30T03:47:52;8.57;;;3.60;;
54261;SDS011;40174;52.364;6.452;2022-09-30T03:50:25;9.70;;;3.90;;
54261;SDS011;40174;52.364;6.452;2022-09-30T03:52:55;9.48;;;3.97;;
54261;SDS011;40174;52.364;6.452;2022-09-30T03:55:22;8.43;;;3.88;;
54261;SDS011;40174;52.364;6.452;2022-09-30T03:57:50;7.88;;;3.45;;
54261;SDS011;40174;52.364;6.452;2022-09-30T04:00:18;6.00;;;2.88;;
54261;SDS011;40174;52.364;6.452;2022-09-30T04:02:45;7.72;;;3.20;;
54261;SDS011;40174;52.364;6.452;2022-09-30T04:05:12;7.47;;;3.38;;
54261;SDS011;40174;52.364;6.452;2022-09-30T04:07:40;7.03;;;3.08;;
54261;SDS011;40174;52.364;6.452;2022-09-30T04:10:07;6.55;;;3.03;;
54261;SDS011;40174;52.364;6.452;2022-09-30T04:12:34;4.82;;;2.30;;
54261;SDS011;40174;52.364;6.452;2022-09-30T04:15:00;7.28;;;3.35;;
54261;SDS011;40174;52.364;6.452;2022-09-30T04:17:27;7.78;;;2.25;;
54261;SDS011;40174;52.364;6.452;2022-09-30T04:19:54;5.50;;;2.28;;
54261;SDS011;40174;52.364;6.452;2022-09-30T04:22:20;6.32;;;2.33;;
54261;SDS011;40174;52.364;6.452;2022-09-30T04:24:48;5.63;;;2.60;;
54261;SDS011;40174;52.364;6.452;2022-09-30T04:27:15;10.52;;;2.67;;
54261;SDS011;40174;52.364;6.452;2022-09-30T04:29:41;7.47;;;2.63;;
54261;SDS011;40174;52.364;6.452;2022-09-30T04:32:08;4.75;;;2.22;;
54261;SDS011;40174;52.364;6.452;2022-09-30T04:34:34;6.53;;;2.65;;
54261;SDS011;40174;52.364;6.452;2022-09-30T04:37:01;6.72;;;2.13;;
54261;SDS011;40174;52.364;6.452;2022-09-30T04:39:28;5.20;;;2.13;;
54261;SDS011;40174;52.364;6.452;2022-09-30T04:41:56;6.20;;;2.63;;
54261;SDS011;40174;52.364;6.452;2022-09-30T04:44:23;4.90;;;2.25;;
54261;SDS011;40174;52.364;6.452;2022-09-30T04:46:49;5.10;;;2.30;;
54261;SDS011;40174;52.364;6.452;2022-09-30T04:49:16;3.72;;;1.88;;
54261;SDS011;40174;52.364;6.452;2022-09-30T04:51:42;4.93;;;2.13;;
54261;SDS011;40174;52.364;6.452;2022-09-30T04:54:10;5.40;;;2.20;;
54261;SDS011;40174;52.364;6.452;2022-09-30T04:56:37;3.97;;;2.10;;
54261;SDS011;40174;52.364;6.452;2022-09-30T04:59:05;5.03;;;2.45;;
54261;SDS011;40174;52.364;6.452;2022-09-30T05:01:31;7.47;;;2.40;;
54261;SDS011;40174;52.364;6.452;2022-09-30T05:03:58;5.28;;;2.30;;
54261;SDS011;40174;52.364;6.452;2022-09-30T05:06:25;6.03;;;2.38;;
54261;SDS011;40174;52.364;6.452;2022-09-30T05:08:52;4.38;;;1.92;;
54261;SDS011;40174;52.364;6.452;2022-09-30T05:11:19;4.03;;;1.90;;
54261;SDS011;40174;52.364;6.452;2022-09-30T05:13:47;4.22;;;2.10;;
54261;SDS011;40174;52.364;6.452;2022-09-30T05:16:16;3.47;;;1.92;;
54261;SDS011;40174;52.364;6.452;2022-09-30T05:18:43;3.13;;;1.83;;
54261;SDS011;40174;52.364;6.452;2022-09-30T05:21:11;4.78;;;2.35;;
54261;SDS011;40174;52.364;6.452;2022-09-30T05:23:38;6.18;;;2.40;;
54261;SDS011;40174;52.364;6.452;2022-09-30T05:26:05;5.38;;;2.20;;
54261;SDS011;40174;52.364;6.452;2022-09-30T05:28:32;4.85;;;2.35;;
54261;SDS011;40174;52.364;6.452;2022-09-30T05:30:59;8.15;;;3.03;;
54261;SDS011;40174;52.364;6.452;2022-09-30T05:33:29;7.85;;;2.95;;
54261;SDS011;40174;52.364;6.452;2022-09-30T05:35:58;5.40;;;2.45;;
54261;SDS011;40174;52.364;6.452;2022-09-30T05:38:26;5.95;;;2.53;;
54261;SDS011;40174;52.364;6.452;2022-09-30T05:40:53;4.97;;;2.30;;
54261;SDS011;40174;52.364;6.452;2022-09-30T05:43:19;5.20;;;2.28;;
54261;SDS011;40174;52.364;6.452;2022-09-30T05:45:51;5.82;;;2.40;;
54261;SDS011;40174;52.364;6.452;2022-09-30T05:48:19;6.43;;;2.67;;
54261;SDS011;40174;52.364;6.452;2022-09-30T05:50:47;6.80;;;2.65;;
54261;SDS011;40174;52.364;6.452;2022-09-30T05:53:17;4.85;;;2.00;;
54261;SDS011;40174;52.364;6.452;2022-09-30T05:55:44;5.13;;;2.33;;
54261;SDS011;40174;52.364;6.452;2022-09-30T05:58:12;6.72;;;3.42;;
54261;SDS011;40174;52.364;6.452;2022-09-30T06:00:39;6.88;;;3.15;;
54261;SDS011;40174;52.364;6.452;2022-09-30T06:03:06;6.90;;;2.65;;
54261;SDS011;40174;52.364;6.452;2022-09-30T06:05:33;5.88;;;2.65;;
54261;SDS011;40174;52.364;6.452;2022-09-30T06:08:01;7.22;;;2.83;;
54261;SDS011;40174;52.364;6.452;2022-09-30T06:10:29;8.00;;;2.90;;
54261;SDS011;40174;52.364;6.452;2022-09-30T06:12:55;5.53;;;2.35;;
54261;SDS011;40174;52.364;6.452;2022-09-30T06:15:23;3.95;;;2.10;;
54261;SDS011;40174;52.364;6.452;2022-09-30T06:17:51;4.53;;;2.00;;
54261;SDS011;40174;52.364;6.452;2022-09-30T06:20:18;6.70;;;2.47;;
54261;SDS011;40174;52.364;6.452;2022-09-30T06:22:45;6.75;;;2.88;;
54261;SDS011;40174;52.364;6.452;2022-09-30T06:25:13;5.07;;;2.53;;
54261;SDS011;40174;52.364;6.452;2022-09-30T06:27:42;5.78;;;2.50;;
54261;SDS011;40174;52.364;6.452;2022-09-30T06:30:10;7.22;;;3.10;;
54261;SDS011;40174;52.364;6.452;2022-09-30T06:32:37;6.72;;;2.45;;
54261;SDS011;40174;52.364;6.452;2022-09-30T06:35:04;6.43;;;2.97;;
54261;SDS011;40174;52.364;6.452;2022-09-30T06:37:31;11.48;;;3.15;;
54261;SDS011;40174;52.364;6.452;2022-09-30T06:40:00;8.80;;;3.85;;
54261;SDS011;40174;52.364;6.452;2022-09-30T06:42:28;5.75;;;3.05;;
54261;SDS011;40174;52.364;6.452;2022-09-30T06:44:56;6.32;;;2.95;;
54261;SDS011;40174;52.364;6.452;2022-09-30T06:47:22;9.43;;;3.45;;
54261;SDS011;40174;52.364;6.452;2022-09-30T06:49:49;7.75;;;3.72;;
54261;SDS011;40174;52.364;6.452;2022-09-30T06:52:18;10.35;;;3.85;;
54261;SDS011;40174;52.364;6.452;2022-09-30T06:54:45;10.52;;;4.07;;
54261;SDS011;40174;52.364;6.452;2022-09-30T06:57:13;9.23;;;4.30;;
54261;SDS011;40174;52.364;6.452;2022-09-30T06:59:42;11.95;;;4.63;;
54261;SDS011;40174;52.364;6.452;2022-09-30T07:02:09;10.95;;;4.88;;
54261;SDS011;40174;52.364;6.452;2022-09-30T07:04:37;12.40;;;5.35;;
54261;SDS011;40174;52.364;6.452;2022-09-30T07:07:03;11.43;;;5.15;;
54261;SDS011;40174;52.364;6.452;2022-09-30T07:09:31;13.70;;;6.72;;
54261;SDS011;40174;52.364;6.452;2022-09-30T07:11:57;16.90;;;6.88;;
54261;SDS011;40174;52.364;6.452;2022-09-30T07:14:24;18.08;;;8.63;;
54261;SDS011;40174;52.364;6.452;2022-09-30T07:16:52;17.02;;;8.77;;
54261;SDS011;40174;52.364;6.452;2022-09-30T07:19:18;22.67;;;10.25;;
54261;SDS011;40174;52.364;6.452;2022-09-30T07:21:47;19.92;;;9.32;;
54261;SDS011;40174;52.364;6.452;2022-09-30T07:24:13;21.25;;;10.13;;
54261;SDS011;40174;52.364;6.452;2022-09-30T07:26:40;20.80;;;9.68;;
54261;SDS011;40174;52.364;6.452;2022-09-30T07:29:09;21.33;;;10.13;;
54261;SDS011;40174;52.364;6.452;2022-09-30T07:31:36;24.55;;;11.65;;
54261;SDS011;40174;52.364;6.452;2022-09-30T07:34:04;24.38;;;10.85;;
54261;SDS011;40174;52.364;6.452;2022-09-30T07:36:32;26.92;;;11.13;;
54261;SDS011;40174;52.364;6.452;2022-09-30T07:39:00;30.95;;;11.18;;
54261;SDS011;40174;52.364;6.452;2022-09-30T07:41:30;33.53;;;13.35;;
54261;SDS011;40174;52.364;6.452;2022-09-30T07:43:57;31.48;;;13.55;;
54261;SDS011;40174;52.364;6.452;2022-09-30T07:46:24;37.35;;;14.23;;
54261;SDS011;40174;52.364;6.452;2022-09-30T07:51:30;33.55;;;13.73;;
54261;SDS011;40174;52.364;6.452;2022-09-30T07:53:59;32.92;;;15.25;;
54261;SDS011;40174;52.364;6.452;2022-09-30T07:56:26;43.72;;;16.00;;
54261;SDS011;40174;52.364;6.452;2022-09-30T07:58:54;37.17;;;15.18;;
54261;SDS011;40174;52.364;6.452;2022-09-30T08:01:24;36.90;;;15.95;;
54261;SDS011;40174;52.364;6.452;2022-09-30T08:03:51;41.60;;;15.77;;
54261;SDS011;40174;52.364;6.452;2022-09-30T08:06:19;37.20;;;16.08;;
54261;SDS011;40174;52.364;6.452;2022-09-30T08:08:48;40.33;;;17.17;;
54261;SDS011;40174;52.364;6.452;2022-09-30T08:11:16;40.95;;;16.08;;
54261;SDS011;40174;52.364;6.452;2022-09-30T08:13:43;36.58;;;13.52;;
54261;SDS011;40174;52.364;6.452;2022-09-30T08:16:09;35.75;;;15.45;;
54261;SDS011;40174;52.364;6.452;2022-09-30T08:18:36;40.53;;;15.13;;
54261;SDS011;40174;52.364;6.452;2022-09-30T08:21:03;36.45;;;14.63;;
54261;SDS011;40174;52.364;6.452;2022-09-30T08:23:30;33.90;;;14.02;;
54261;SDS011;40174;52.364;6.452;2022-09-30T08:26:02;31.80;;;13.77;;
54261;SDS011;40174;52.364;6.452;2022-09-30T08:28:29;35.67;;;13.35;;
54261;SDS011;40174;52.364;6.452;2022-09-30T08:31:02;32.00;;;12.68;;
54261;SDS011;40174;52.364;6.452;2022-09-30T08:33:29;29.58;;;12.07;;
54261;SDS011;40174;52.364;6.452;2022-09-30T08:35:59;29.15;;;12.52;;
54261;SDS011;40174;52.364;6.452;2022-09-30T08:38:27;29.88;;;12.85;;
54261;SDS011;40174;52.364;6.452;2022-09-30T08:40:57;26.75;;;11.68;;
54261;SDS011;40174;52.364;6.452;2022-09-30T08:43:38;25.20;;;10.60;;
54261;SDS011;40174;52.364;6.452;2022-09-30T08:46:16;27.67;;;12.13;;
54261;SDS011;40174;52.364;6.452;2022-09-30T08:48:55;25.58;;;11.77;;
54261;SDS011;40174;52.364;6.452;2022-09-30T08:51:29;24.60;;;10.95;;
54261;SDS011;40174;52.364;6.452;2022-09-30T08:53:59;27.92;;;13.35;;
54261;SDS011;40174;52.364;6.452;2022-09-30T08:56:32;32.05;;;11.90;;
54261;SDS011;40174;52.364;6.452;2022-09-30T08:59:00;22.60;;;10.40;;
54261;SDS011;40174;52.364;6.452;2022-09-30T09:01:32;24.50;;;10.77;;
54261;SDS011;40174;52.364;6.452;2022-09-30T09:04:01;21.52;;;10.18;;
54261;SDS011;40174;52.364;6.452;2022-09-30T09:06:33;19.45;;;8.90;;
54261;SDS011;40174;52.364;6.452;2022-09-30T09:09:14;19.48;;;10.00;;
54261;SDS011;40174;52.364;6.452;2022-09-30T09:12:11;20.50;;;9.98;;
54261;SDS011;40174;52.364;6.452;2022-09-30T09:14:52;23.92;;;9.40;;
54261;SDS011;40174;52.364;6.452;2022-09-30T09:17:38;19.35;;;9.40;;
54261;SDS011;40174;52.364;6.452;2022-09-30T09:20:16;22.83;;;10.68;;
54261;SDS011;40174;52.364;6.452;2022-09-30T09:22:46;23.60;;;9.82;;
54261;SDS011;40174;52.364;6.452;2022-09-30T09:25:15;20.92;;;9.80;;
54261;SDS011;40174;52.364;6.452;2022-09-30T09:27:45;17.92;;;8.90;;
54261;SDS011;40174;52.364;6.452;2022-09-30T09:30:18;25.45;;;10.35;;
54261;SDS011;40174;52.364;6.452;2022-09-30T09:32:48;17.80;;;7.93;;
54261;SDS011;40174;52.364;6.452;2022-09-30T09:35:24;18.67;;;9.45;;
54261;SDS011;40174;52.364;6.452;2022-09-30T09:38:00;19.20;;;9.60;;
54261;SDS011;40174;52.364;6.452;2022-09-30T09:40:55;20.17;;;9.35;;
54261;SDS011;40174;52.364;6.452;2022-09-30T09:43:40;18.55;;;9.80;;
54261;SDS011;40174;52.364;6.452;2022-09-30T09:46:16;20.45;;;9.68;;
54261;SDS011;40174;52.364;6.452;2022-09-30T09:48:53;17.83;;;9.10;;
54261;SDS011;40174;52.364;6.452;2022-09-30T09:51:36;17.25;;;8.63;;
54261;SDS011;40174;52.364;6.452;2022-09-30T09:54:08;20.17;;;9.50;;
54261;SDS011;40174;52.364;6.452;2022-09-30T09:56:37;18.33;;;8.75;;
54261;SDS011;40174;52.364;6.452;2022-09-30T09:59:06;17.70;;;8.70;;
54261;SDS011;40174;52.364;6.452;2022-09-30T10:01:35;18.77;;;9.20;;
54261;SDS011;40174;52.364;6.452;2022-09-30T10:04:07;21.08;;;9.85;;
54261;SDS011;40174;52.364;6.452;2022-09-30T10:06:44;19.75;;;9.68;;
54261;SDS011;40174;52.364;6.452;2022-09-30T10:09:23;21.65;;;9.70;;
54261;SDS011;40174;52.364;6.452;2022-09-30T10:14:56;18.27;;;9.07;;
54261;SDS011;40174;52.364;6.452;2022-09-30T10:17:25;20.73;;;9.40;;
54261;SDS011;40174;52.364;6.452;2022-09-30T10:19:56;17.60;;;8.85;;
54261;SDS011;40174;52.364;6.452;2022-09-30T10:22:26;20.02;;;9.63;;
54261;SDS011;40174;52.364;6.452;2022-09-30T10:25:09;21.95;;;9.68;;
54261;SDS011;40174;52.364;6.452;2022-09-30T10:27:47;21.60;;;9.38;;
54261;SDS011;40174;52.364;6.452;2022-09-30T10:30:37;22.05;;;9.95;;
54261;SDS011;40174;52.364;6.452;2022-09-30T10:33:12;20.73;;;9.55;;
54261;SDS011;40174;52.364;6.452;2022-09-30T10:35:48;17.30;;;9.05;;
54261;SDS011;40174;52.364;6.452;2022-09-30T10:38:20;20.17;;;9.15;;
54261;SDS011;40174;52.364;6.452;2022-09-30T10:40:48;18.25;;;9.20;;
54261;SDS011;40174;52.364;6.452;2022-09-30T10:43:20;17.40;;;9.57;;
54261;SDS011;40174;52.364;6.452;2022-09-30T10:45:54;16.45;;;8.15;;
54261;SDS011;40174;52.364;6.452;2022-09-30T10:48:23;17.75;;;9.13;;
54261;SDS011;40174;52.364;6.452;2022-09-30T10:50:55;16.80;;;8.80;;
54261;SDS011;40174;52.364;6.452;2022-09-30T10:53:23;15.90;;;8.25;;
54261;SDS011;40174;52.364;6.452;2022-09-30T10:55:51;16.25;;;8.93;;
54261;SDS011;40174;52.364;6.452;2022-09-30T10:58:27;18.42;;;9.23;;
54261;SDS011;40174;52.364;6.452;2022-09-30T11:01:02;18.15;;;7.88;;
54261;SDS011;40174;52.364;6.452;2022-09-30T11:03:33;18.55;;;9.23;;
54261;SDS011;40174;52.364;6.452;2022-09-30T11:06:05;16.23;;;9.20;;
54261;SDS011;40174;52.364;6.452;2022-09-30T11:08:38;15.48;;;7.78;;
54261;SDS011;40174;52.364;6.452;2022-09-30T11:11:10;17.42;;;8.90;;
54261;SDS011;40174;52.364;6.452;2022-09-30T11:13:41;18.05;;;9.77;;
54261;SDS011;40174;52.364;6.452;2022-09-30T11:16:17;14.65;;;8.32;;
54261;SDS011;40174;52.364;6.452;2022-09-30T11:18:52;13.82;;;7.70;;
54261;SDS011;40174;52.364;6.452;2022-09-30T11:21:25;13.57;;;7.47;;
54261;SDS011;40174;52.364;6.452;2022-09-30T11:23:59;15.18;;;8.77;;
54261;SDS011;40174;52.364;6.452;2022-09-30T11:26:31;14.70;;;7.68;;
54261;SDS011;40174;52.364;6.452;2022-09-30T11:29:11;13.50;;;7.10;;
54261;SDS011;40174;52.364;6.452;2022-09-30T11:31:50;16.92;;;8.40;;
54261;SDS011;40174;52.364;6.452;2022-09-30T11:34:32;12.60;;;7.07;;
54261;SDS011;40174;52.364;6.452;2022-09-30T11:37:10;14.77;;;7.57;;
54261;SDS011;40174;52.364;6.452;2022-09-30T11:39:50;12.40;;;6.70;;
54261;SDS011;40174;52.364;6.452;2022-09-30T11:42:39;15.60;;;7.43;;
54261;SDS011;40174;52.364;6.452;2022-09-30T11:45:18;14.23;;;7.77;;
54261;SDS011;40174;52.364;6.452;2022-09-30T11:48:00;14.63;;;6.47;;
54261;SDS011;40174;52.364;6.452;2022-09-30T11:50:43;13.30;;;6.60;;
54261;SDS011;40174;52.364;6.452;2022-09-30T11:53:21;12.40;;;5.97;;
54261;SDS011;40174;52.364;6.452;2022-09-30T11:56:08;11.10;;;6.15;;
54261;SDS011;40174;52.364;6.452;2022-09-30T11:58:46;11.88;;;6.75;;
54261;SDS011;40174;52.364;6.452;2022-09-30T12:01:17;10.82;;;5.82;;
54261;SDS011;40174;52.364;6.452;2022-09-30T12:03:52;11.88;;;6.28;;
54261;SDS011;40174;52.364;6.452;2022-09-30T12:06:25;11.43;;;6.00;;
54261;SDS011;40174;52.364;6.452;2022-09-30T12:08:57;10.73;;;5.70;;
54261;SDS011;40174;52.364;6.452;2022-09-30T12:11:32;16.00;;;6.68;;
54261;SDS011;40174;52.364;6.452;2022-09-30T12:16:37;12.18;;;6.35;;
54261;SDS011;40174;52.364;6.452;2022-09-30T12:19:10;11.65;;;6.43;;
54261;SDS011;40174;52.364;6.452;2022-09-30T12:21:43;12.30;;;6.00;;
54261;SDS011;40174;52.364;6.452;2022-09-30T12:24:16;13.05;;;6.07;;
54261;SDS011;40174;52.364;6.452;2022-09-30T12:26:49;9.55;;;5.43;;
54261;SDS011;40174;52.364;6.452;2022-09-30T12:29:16;10.27;;;5.93;;
54261;SDS011;40174;52.364;6.452;2022-09-30T12:32:09;11.70;;;6.43;;
54261;SDS011;40174;52.364;6.452;2022-09-30T12:34:54;15.63;;;6.95;;
54261;SDS011;40174;52.364;6.452;2022-09-30T12:37:33;11.63;;;6.25;;
54261;SDS011;40174;52.364;6.452;2022-09-30T12:40:16;11.15;;;5.95;;
54261;SDS011;40174;52.364;6.452;2022-09-30T12:46:11;10.73;;;5.78;;
54261;SDS011;40174;52.364;6.452;2022-09-30T12:48:42;9.23;;;5.03;;
54261;SDS011;40174;52.364;6.452;2022-09-30T12:51:19;12.05;;;5.88;;
54261;SDS011;40174;52.364;6.452;2022-09-30T12:53:50;11.75;;;6.32;;
54261;SDS011;40174;52.364;6.452;2022-09-30T12:56:24;10.77;;;6.55;;
54261;SDS011;40174;52.364;6.452;2022-09-30T12:58:53;14.90;;;6.90;;
54261;SDS011;40174;52.364;6.452;2022-09-30T13:01:22;14.23;;;7.43;;
54261;SDS011;40174;52.364;6.452;2022-09-30T13:03:51;10.77;;;6.78;;
54261;SDS011;40174;52.364;6.452;2022-09-30T13:10:00;11.90;;;6.53;;
54261;SDS011;40174;52.364;6.452;2022-09-30T13:12:54;12.30;;;6.82;;
54261;SDS011;40174;52.364;6.452;2022-09-30T13:15:42;13.20;;;6.50;;
54261;SDS011;40174;52.364;6.452;2022-09-30T13:21:17;12.00;;;6.75;;
54261;SDS011;40174;52.364;6.452;2022-09-30T13:23:47;11.65;;;5.82;;
54261;SDS011;40174;52.364;6.452;2022-09-30T13:26:34;10.55;;;6.60;;
54261;SDS011;40174;52.364;6.452;2022-09-30T13:32:11;11.32;;;6.68;;
54261;SDS011;40174;52.364;6.452;2022-09-30T13:34:57;9.77;;;5.30;;
54261;SDS011;40174;52.364;6.452;2022-09-30T13:37:31;10.13;;;5.72;;
54261;SDS011;40174;52.364;6.452;2022-09-30T13:40:03;8.93;;;4.25;;
54261;SDS011;40174;52.364;6.452;2022-09-30T13:42:40;8.43;;;4.25;;
54261;SDS011;40174;52.364;6.452;2022-09-30T13:45:13;9.70;;;4.38;;
54261;SDS011;40174;52.364;6.452;2022-09-30T13:47:46;12.38;;;4.40;;
54261;SDS011;40174;52.364;6.452;2022-09-30T13:50:16;11.23;;;5.03;;
54261;SDS011;40174;52.364;6.452;2022-09-30T13:52:47;7.38;;;3.83;;
54261;SDS011;40174;52.364;6.452;2022-09-30T13:55:19;7.20;;;3.80;;
54261;SDS011;40174;52.364;6.452;2022-09-30T13:57:52;6.57;;;3.60;;
54261;SDS011;40174;52.364;6.452;2022-09-30T14:00:34;8.90;;;3.83;;
54261;SDS011;40174;52.364;6.452;2022-09-30T14:03:14;10.15;;;3.60;;
54261;SDS011;40174;52.364;6.452;2022-09-30T14:08:56;8.68;;;3.67;;
54261;SDS011;40174;52.364;6.452;2022-09-30T14:14:51;8.80;;;3.70;;
54261;SDS011;40174;52.364;6.452;2022-09-30T14:17:39;8.70;;;4.13;;
54261;SDS011;40174;52.364;6.452;2022-09-30T14:20:23;7.97;;;3.95;;
54261;SDS011;40174;52.364;6.452;2022-09-30T14:23:00;8.80;;;3.47;;
54261;SDS011;40174;52.364;6.452;2022-09-30T14:25:29;7.18;;;3.55;;
54261;SDS011;40174;52.364;6.452;2022-09-30T14:30:31;7.03;;;3.38;;
54261;SDS011;40174;52.364;6.452;2022-09-30T14:33:07;6.95;;;3.55;;
54261;SDS011;40174;52.364;6.452;2022-09-30T14:35:37;8.18;;;3.33;;
54261;SDS011;40174;52.364;6.452;2022-09-30T14:38:06;5.45;;;3.25;;
54261;SDS011;40174;52.364;6.452;2022-09-30T14:40:38;5.82;;;3.03;;
54261;SDS011;40174;52.364;6.452;2022-09-30T14:43:11;5.95;;;2.50;;
54261;SDS011;40174;52.364;6.452;2022-09-30T14:45:42;6.97;;;2.83;;
54261;SDS011;40174;52.364;6.452;2022-09-30T14:48:13;5.47;;;2.58;;
54261;SDS011;40174;52.364;6.452;2022-09-30T14:50:45;4.13;;;2.17;;
54261;SDS011;40174;52.364;6.452;2022-09-30T14:53:22;4.15;;;1.98;;
54261;SDS011;40174;52.364;6.452;2022-09-30T14:55:50;4.55;;;1.90;;
54261;SDS011;40174;52.364;6.452;2022-09-30T14:58:18;4.75;;;2.28;;
54261;SDS011;40174;52.364;6.452;2022-09-30T15:00:54;5.50;;;1.85;;
54261;SDS011;40174;52.364;6.452;2022-09-30T15:03:25;5.93;;;1.67;;
54261;SDS011;40174;52.364;6.452;2022-09-30T15:05:54;4.03;;;1.85;;
54261;SDS011;40174;52.364;6.452;2022-09-30T15:08:22;2.38;;;1.60;;
54261;SDS011;40174;52.364;6.452;2022-09-30T15:10:49;6.35;;;1.60;;
54261;SDS011;40174;52.364;6.452;2022-09-30T15:13:17;3.80;;;1.40;;
54261;SDS011;40174;52.364;6.452;2022-09-30T15:15:46;3.60;;;1.02;;
54261;SDS011;40174;52.364;6.452;2022-09-30T15:18:22;3.28;;;1.40;;
54261;SDS011;40174;52.364;6.452;2022-09-30T15:20:51;3.35;;;1.40;;
54261;SDS011;40174;52.364;6.452;2022-09-30T15:23:22;2.80;;;1.40;;
54261;SDS011;40174;52.364;6.452;2022-09-30T15:25:51;3.80;;;1.33;;
54261;SDS011;40174;52.364;6.452;2022-09-30T15:28:19;3.47;;;1.30;;
54261;SDS011;40174;52.364;6.452;2022-09-30T15:30:46;2.38;;;1.20;;
54261;SDS011;40174;52.364;6.452;2022-09-30T15:33:14;1.80;;;0.90;;
54261;SDS011;40174;52.364;6.452;2022-09-30T15:35:42;1.63;;;0.82;;
54261;SDS011;40174;52.364;6.452;2022-09-30T15:38:14;2.03;;;0.90;;
54261;SDS011;40174;52.364;6.452;2022-09-30T15:40:47;3.87;;;1.00;;
54261;SDS011;40174;52.364;6.452;2022-09-30T15:46:14;1.85;;;1.02;;